Carlos, MN (56319)

5:24 PM CST on February 11, 2016 (GMT -0600)
Burgen Sunrise | | Change Station
CLOSE
Current Station
Personal Weather Station
Location: Alexandria, MN
Elevation: 1398 ft
Nearby Weather Stations

Elev 1398 ft 45.86 °N, 95.35 °W | Updated 6 seconds ago

Overcast
Overcast
13.6 °F
Feels Like 14 °F
N
0.0
Wind Variable Wind from West
Gusts 0.0 mph

Today
High -- | Low -- °F
--% Chance of Precip.
Yesterday
High -- | Low -- °F
Precip. -- in
Pressure 30.18 in
Visibility 4.0 miles
Clouds Overcast 1400 ft
Windchill 14 °F
Dew Point 4 °F
Humidity 64%
Rainfall 0.00 in
Snow Depth Not available.
7:30 AM 5:40 PM
Waxing Crescent, 15% visible
SPECI KAXN 112311Z AUTO 26003KT 4SM HZ OVC014 M11/M14 A3018 RMK AO2 SNB2254E06 P0000 T11061139
Pressure 30.18 in
Visibility 4.0 miles
Clouds Overcast 1400 ft
Windchill 14 °F
Dew Point 4 °F
Humidity 64%
Rainfall 0.00 in
Snow Depth Not available.
7:30 AM 5:40 PM
Waxing Crescent, 15% visible
SPECI KAXN 112311Z AUTO 26003KT 4SM HZ OVC014 M11/M14 A3018 RMK AO2 SNB2254E06 P0000 T11061139

10-Day Weather Forecast

Almanac

Astronomy

Feb. 11, 2016 Rise Set
Actual Time
Civil Twilight
Nautical Twilight
Astronomical Twilight
Moon
Length of Visible Light
Length of Day
Tomorrow will be .
, % of the Moon is Illuminated

Today's Extremes

State Highs State Lows

Community

WunderPhotos

Upload Photos

1,892,180 photos uploaded!

WunderBlog® & News

Nearby

Air Quality

  Air Quality AQ Index Pollutant
Not available.

Snow Depth

Station Depth Elevation

Earthquake Activity

City Distance Mag. Time & Date
Minimum magnitude displayed is 2.5.

Coastal Water Temperatures

Place Temperature

Stations

Nearby Weather Stations

Station Location Temp. Windchill Dew Point Humidity Wind Precip. Elev Updated Type
                   

Watches & Warnings

There are currently no watches in effect.